Cabinda, Angola
Current Conditions -  °F | °C
As of 6:00 AM on Monday 22 Dec 2014 (Local Time) from FCPP Reporting Station
Scattered Clouds Scattered Clouds  
Wind Chill: 77°   Ceiling: Unl
Heat Index: 78°   Visibility: 5mi
Dew Point: 75°   Wind: 2mph
Humidity: 94%   Direction: NA
Pressure: 29.88"   Gusts: NA
Location:  5.55°S, 12.19°E
Report Text: FCPP 220500Z VRB02KT 8000 FEW010 SCT023 25/24 Q1012 NOSIG
Loading
Personal Weather Stations






























Interactive Weather Map New forecast layout! Learn more

10-Day Weather Forecast

Advertisements
Track Severe Weather on mobile